Time;durP1;ratioP1;P1;durP2;ratioP2;P2;SDS_P1;SDS_P2;PMS_P1;PMS_P2;Temp;Humidity;BMP_temperature;BMP_pressure;BME280_temperature;BME280_humidity;BME280_pressure;Samples;Min_cycle;Max_cycle;Signal;HPM_P1;HPM_P2
2021/03/12 00:00:34;;;;;;;32.55;4.10;;;5.60;99.90;;;;;;5016544;28;20040;-88
2021/03/12 00:03:00;;;;;;;29.63;3.67;;;5.60;99.90;;;;;;5030950;28;20045;-88
2021/03/12 00:05:26;;;;;;;33.03;3.78;;;5.60;99.90;;;;;;5015487;28;20500;-88
2021/03/12 00:07:55;;;;;;;23.98;4.32;;;5.60;99.90;;;;;;5030201;28;20046;-88
2021/03/12 00:10:27;;;;;;;27.60;4.13;;;5.60;99.90;;;;;;5012424;28;20046;-88
2021/03/12 00:12:53;;;;;;;32.90;3.83;;;5.60;99.90;;;;;;5029322;28;20041;-88
2021/03/12 00:15:21;;;;;;;27.73;4.05;;;5.60;99.90;;;;;;5044369;28;20049;-88
2021/03/12 00:17:48;;;;;;;28.50;3.30;;;5.60;99.90;;;;;;5028280;28;20155;-88
2021/03/12 00:20:23;;;;;;;26.80;3.85;;;5.70;99.90;;;;;;5043945;28;20116;-88
2021/03/12 00:22:52;;;;;;;28.05;4.53;;;5.50;99.90;;;;;;5045132;28;20044;-89
2021/03/12 00:25:24;;;;;;;27.73;3.80;;;5.50;99.90;;;;;;5027896;28;20092;-88
2021/03/12 00:27:50;;;;;;;32.20;4.75;;;5.50;99.90;;;;;;5046363;28;20136;-89
2021/03/12 00:30:18;;;;;;;28.33;4.40;;;5.50;99.90;;;;;;5010841;28;20640;-88
2021/03/12 00:32:44;;;;;;;27.35;3.45;;;5.50;99.90;;;;;;5029820;28;20183;-88
2021/03/12 00:35:10;;;;;;;28.35;3.40;;;5.50;99.90;;;;;;5045142;28;20460;-87
2021/03/12 00:37:36;;;;;;;22.88;3.00;;;5.50;99.90;;;;;;5027520;28;20052;-90
2021/03/12 00:40:08;;;;;;;25.13;3.83;;;5.50;99.90;;;;;;5027592;28;20044;-88
2021/03/12 00:42:34;;;;;;;17.83;3.05;;;5.50;99.90;;;;;;5042793;28;20048;-88
2021/03/12 00:45:00;;;;;;;14.77;2.60;;;5.50;99.90;;;;;;5031801;28;20049;-88
2021/03/12 00:47:26;;;;;;;23.55;4.32;;;5.50;99.90;;;;;;5028584;28;20041;-88
2021/03/12 00:49:52;;;;;;;20.15;3.63;;;5.50;99.90;;;;;;5013837;28;20045;-88
2021/03/12 00:52:17;;;;;;;24.95;4.05;;;5.50;99.90;;;;;;5027674;28;20041;-88
2021/03/12 00:54:45;;;;;;;20.20;3.47;;;5.50;99.90;;;;;;5027999;28;20420;-88
2021/03/12 00:57:14;;;;;;;17.55;3.20;;;5.70;99.90;;;;;;5044129;28;20049;-88
2021/03/12 00:59:40;;;;;;;30.58;3.97;;;5.60;99.90;;;;;;5013859;28;20038;-88
2021/03/12 01:02:06;;;;;;;23.85;2.90;;;5.60;99.90;;;;;;5048940;28;20042;-88
2021/03/12 01:04:32;;;;;;;23.48;4.28;;;5.70;99.90;;;;;;5043477;28;20080;-89
2021/03/12 01:06:58;;;;;;;17.85;3.58;;;5.80;99.90;;;;;;5027102;28;20423;-90
2021/03/12 01:09:24;;;;;;;27.50;4.50;;;5.90;99.90;;;;;;5024973;28;20046;-89
2021/03/12 01:11:49;;;;;;;22.45;4.60;;;5.90;99.90;;;;;;5043839;28;20072;-89
2021/03/12 01:14:15;;;;;;;27.38;4.63;;;5.90;99.90;;;;;;5036924;28;20470;-87
2021/03/12 01:16:41;;;;;;;23.25;4.18;;;5.90;99.90;;;;;;5045295;28;20400;-88
2021/03/12 01:19:07;;;;;;;21.02;4.82;;;6.00;99.90;;;;;;5000450;28;20476;-88
2021/03/12 01:21:33;;;;;;;19.77;3.72;;;6.00;99.90;;;;;;5041711;28;20061;-87
2021/03/12 01:23:59;;;;;;;19.23;3.10;;;6.00;99.90;;;;;;5015287;28;20080;-89
2021/03/12 01:26:26;;;;;;;18.27;3.28;;;6.00;99.90;;;;;;5031080;28;20064;-89
2021/03/12 01:28:52;;;;;;;25.88;4.00;;;6.00;99.90;;;;;;5031981;28;20120;-88
2021/03/12 01:31:18;;;;;;;21.92;4.47;;;6.00;99.90;;;;;;5031388;28;20049;-87
2021/03/12 01:33:43;;;;;;;17.75;3.90;;;6.00;99.90;;;;;;5031291;28;20382;-88
2021/03/12 01:36:10;;;;;;;22.42;4.05;;;6.00;99.90;;;;;;5035786;28;20037;-88
2021/03/12 01:38:39;;;;;;;18.05;3.25;;;5.90;99.90;;;;;;5028624;28;20040;-89
2021/03/12 01:41:04;;;;;;;19.50;4.22;;;6.00;99.90;;;;;;5048435;28;20405;-88
2021/03/12 01:43:30;;;;;;;28.58;4.18;;;6.00;99.90;;;;;;5044583;28;20041;-88
2021/03/12 01:45:56;;;;;;;16.50;3.47;;;5.90;99.90;;;;;;5016823;28;20046;-89
2021/03/12 01:48:24;;;;;;;22.58;4.00;;;5.90;99.90;;;;;;5016570;28;20042;-89
2021/03/12 01:50:59;;;;;;;18.33;2.75;;;5.90;99.90;;;;;;5048302;28;20037;-88
2021/03/12 01:53:36;;;;;;;20.30;3.85;;;5.90;99.90;;;;;;5031922;28;20041;-88
2021/03/12 01:56:04;;;;;;;14.45;3.22;;;5.90;99.90;;;;;;5030823;28;20128;-88
2021/03/12 01:58:30;;;;;;;20.08;3.30;;;5.90;99.90;;;;;;5047038;28;20053;-88
2021/03/12 02:00:56;;;;;;;21.33;3.80;;;5.80;99.90;;;;;;5032171;28;20067;-88
2021/03/12 02:03:26;;;;;;;21.33;3.72;;;5.80;99.90;;;;;;5030559;28;20041;-88
2021/03/12 02:05:52;;;;;;;21.05;3.80;;;5.70;99.90;;;;;;5031014;28;20041;-88
2021/03/12 02:08:18;;;;;;;16.55;3.50;;;6.00;99.90;;;;;;5030911;28;20045;-88
2021/03/12 02:10:45;;;;;;;24.35;4.70;;;5.70;99.90;;;;;;5043490;28;20053;-88
2021/03/12 02:13:30;;;;;;;19.15;3.90;;;5.70;99.90;;;;;;5031045;28;20464;-88
2021/03/12 02:16:12;;;;;;;24.73;4.35;;;5.70;99.90;;;;;;5047518;28;20053;-88
2021/03/12 02:18:49;;;;;;;16.23;3.28;;;5.70;99.90;;;;;;5046733;28;20045;-88
2021/03/12 02:21:27;;;;;;;21.25;4.15;;;5.70;99.90;;;;;;5047539;28;20481;-88
2021/03/12 02:23:57;;;;;;;24.08;5.38;;;5.80;99.90;;;;;;5030869;28;20051;-88
2021/03/12 02:26:43;;;;;;;20.50;3.55;;;5.80;99.90;;;;;;5031213;28;20045;-89
2021/03/12 02:29:14;;;;;;;25.25;4.28;;;5.80;99.90;;;;;;5047382;28;20053;-90
2021/03/12 02:31:40;;;;;;;23.85;5.18;;;5.80;99.90;;;;;;5029860;28;20064;-90
2021/03/12 02:34:10;;;;;;;16.70;3.38;;;5.90;99.90;;;;;;5046428;28;20459;-88
2021/03/12 02:36:38;;;;;;;25.38;4.00;;;5.80;99.90;;;;;;5029659;28;20042;-88
2021/03/12 02:39:09;;;;;;;23.75;3.70;;;5.90;99.90;;;;;;5013980;28;20485;-88
2021/03/12 02:41:36;;;;;;;14.30;2.67;;;5.80;99.90;;;;;;5030978;28;20038;-88
2021/03/12 02:44:03;;;;;;;24.13;3.92;;;5.80;99.90;;;;;;5047261;28;20041;-86
2021/03/12 02:46:30;;;;;;;18.70;3.72;;;5.70;99.90;;;;;;5029620;28;20045;-86
2021/03/12 02:48:57;;;;;;;31.58;4.05;;;5.70;99.90;;;;;;5030597;28;20410;-86
2021/03/12 02:51:23;;;;;;;30.73;5.82;;;5.70;99.90;;;;;;5013708;28;20401;-85
2021/03/12 02:53:50;;;;;;;23.88;3.63;;;5.60;99.90;;;;;;5029688;28;20037;-86
2021/03/12 02:56:17;;;;;;;11.93;2.28;;;5.60;99.90;;;;;;5046928;28;20042;-87
2021/03/12 02:58:45;;;;;;;30.52;5.82;;;5.70;99.90;;;;;;5030245;28;20053;-87
2021/03/12 03:01:13;;;;;;;24.80;4.10;;;5.70;99.90;;;;;;5029964;28;20048;-86
2021/03/12 03:03:40;;;;;;;19.95;2.45;;;5.70;99.90;;;;;;5045714;28;20073;-86
2021/03/12 03:06:08;;;;;;;15.50;3.20;;;5.70;99.90;;;;;;5029998;28;20096;-87
2021/03/12 03:08:37;;;;;;;15.60;3.28;;;5.70;99.90;;;;;;5028946;28;20115;-85
2021/03/12 03:11:07;;;;;;;18.05;2.65;;;5.70;99.90;;;;;;5015768;28;20048;-87
2021/03/12 03:13:35;;;;;;;19.70;3.38;;;5.60;99.90;;;;;;5028741;28;20547;-87
2021/03/12 03:16:04;;;;;;;19.05;4.15;;;5.60;99.90;;;;;;5030676;28;20040;-87
2021/03/12 03:18:37;;;;;;;14.52;2.92;;;5.60;99.90;;;;;;5028490;28;20124;-87
2021/03/12 03:21:05;;;;;;;27.85;2.78;;;5.50;99.90;;;;;;5031101;28;20508;-87
2021/03/12 03:23:32;;;;;;;19.88;3.03;;;5.50;99.90;;;;;;5030107;28;20056;-87
2021/03/12 03:25:59;;;;;;;21.25;4.03;;;5.50;99.90;;;;;;5045785;28;20045;-88
2021/03/12 03:28:25;;;;;;;18.08;3.55;;;5.50;99.90;;;;;;5029441;28;20508;-87
2021/03/12 03:30:51;;;;;;;17.50;3.92;;;5.50;99.90;;;;;;5028777;28;20049;-87
2021/03/12 03:33:17;;;;;;;19.67;4.05;;;5.50;99.90;;;;;;5030287;28;20563;-87
2021/03/12 03:35:43;;;;;;;13.65;3.17;;;5.50;99.90;;;;;;5028591;28;20045;-87
2021/03/12 03:38:09;;;;;;;17.13;3.40;;;5.50;99.90;;;;;;5026218;28;20162;-87
2021/03/12 03:40:35;;;;;;;20.48;3.47;;;5.50;99.90;;;;;;5034109;28;20477;-87
2021/03/12 03:43:03;;;;;;;28.15;4.38;;;5.40;99.90;;;;;;5028704;28;20088;-88
2021/03/12 03:45:31;;;;;;;24.48;3.97;;;5.50;99.90;;;;;;5027914;28;20091;-87
2021/03/12 03:47:58;;;;;;;22.08;2.95;;;5.60;99.90;;;;;;5045067;28;20053;-86
2021/03/12 03:50:24;;;;;;;28.10;2.75;;;5.40;99.90;;;;;;5028663;28;20042;-86
2021/03/12 03:52:51;;;;;;;25.98;5.50;;;5.30;99.90;;;;;;5028250;28;20042;-85
2021/03/12 03:55:21;;;;;;;24.98;3.40;;;5.30;99.90;;;;;;5028360;28;20046;-87
2021/03/12 03:57:48;;;;;;;20.92;3.20;;;5.30;99.90;;;;;;5044645;28;20057;-88
2021/03/12 04:00:14;;;;;;;20.77;3.10;;;5.20;99.90;;;;;;5028617;28;20496;-87
2021/03/12 04:02:40;;;;;;;24.02;4.95;;;5.10;99.90;;;;;;5027747;28;20045;-87
2021/03/12 04:05:07;;;;;;;25.48;4.28;;;5.10;99.90;;;;;;5045361;28;20087;-88
2021/03/12 04:07:34;;;;;;;20.33;3.00;;;5.00;99.90;;;;;;5011905;28;20489;-87
2021/03/12 04:10:02;;;;;;;15.10;2.60;;;5.00;99.90;;;;;;5019531;28;20055;-89
2021/03/12 04:12:29;;;;;;;25.13;4.00;;;5.00;99.90;;;;;;5023516;28;20099;-87
2021/03/12 04:14:56;;;;;;;22.45;3.85;;;4.90;99.90;;;;;;5027917;28;20095;-89
2021/03/12 04:17:22;;;;;;;25.08;3.30;;;4.90;99.90;;;;;;5028120;28;20132;-88
2021/03/12 04:19:48;;;;;;;25.23;3.88;;;4.90;99.90;;;;;;5044163;28;20096;-90
2021/03/12 04:22:15;;;;;;;24.02;2.92;;;4.80;99.90;;;;;;5028140;28;20064;-89
2021/03/12 04:24:43;;;;;;;20.92;3.60;;;4.80;99.90;;;;;;5044104;28;20093;-88
2021/03/12 04:27:09;;;;;;;17.70;2.83;;;4.70;99.90;;;;;;5012013;28;20160;-88
2021/03/12 04:29:35;;;;;;;20.85;3.47;;;4.70;99.90;;;;;;5027480;28;20057;-88
2021/03/12 04:32:01;;;;;;;24.70;3.60;;;4.70;99.90;;;;;;5045193;28;20041;-88
2021/03/12 04:34:27;;;;;;;22.15;3.13;;;4.70;99.90;;;;;;5027923;28;20051;-88
2021/03/12 04:36:54;;;;;;;28.98;3.55;;;4.70;99.90;;;;;;5037575;28;20038;-88
2021/03/12 04:39:21;;;;;;;26.05;3.92;;;4.70;99.90;;;;;;5018271;28;20073;-88
2021/03/12 04:41:48;;;;;;;34.28;4.22;;;4.70;99.90;;;;;;5024349;28;20445;-88
2021/03/12 04:44:14;;;;;;;24.15;3.17;;;4.70;99.90;;;;;;5035941;28;20519;-88
2021/03/12 04:46:41;;;;;;;19.27;3.13;;;4.70;99.90;;;;;;5027216;28;20057;-88
2021/03/12 04:49:09;;;;;;;15.07;3.05;;;4.70;99.90;;;;;;5028673;28;20092;-88
2021/03/12 04:51:36;;;;;;;16.20;3.20;;;4.70;99.90;;;;;;5028521;28;20080;-88
2021/03/12 04:54:07;;;;;;;23.77;3.35;;;4.70;99.90;;;;;;5028150;28;20045;-88
2021/03/12 04:56:34;;;;;;;20.92;2.75;;;4.60;99.90;;;;;;5026593;28;20038;-88
2021/03/12 04:59:02;;;;;;;12.75;2.20;;;4.60;99.90;;;;;;5027570;28;20061;-88
2021/03/12 05:01:30;;;;;;;17.95;3.38;;;4.60;99.90;;;;;;5044217;28;20103;-89
2021/03/12 05:03:57;;;;;;;20.98;2.92;;;4.50;99.90;;;;;;5007595;28;20483;-87
2021/03/12 05:06:24;;;;;;;16.98;2.75;;;4.90;99.90;;;;;;5028131;28;20045;-87
2021/03/12 05:08:51;;;;;;;14.85;2.28;;;4.40;99.90;;;;;;5026289;28;20147;-88
2021/03/12 05:11:20;;;;;;;18.35;2.65;;;4.50;99.90;;;;;;5043851;28;20124;-88
2021/03/12 05:13:50;;;;;;;20.63;2.53;;;4.40;99.90;;;;;;5027444;28;20136;-88
2021/03/12 05:16:17;;;;;;;12.75;2.22;;;4.40;99.90;;;;;;5027714;28;20083;-87
2021/03/12 05:18:43;;;;;;;23.10;2.42;;;4.40;99.90;;;;;;5027293;28;20141;-87
2021/03/12 05:21:09;;;;;;;17.83;3.10;;;4.40;99.90;;;;;;5027579;28;20505;-87
2021/03/12 05:23:35;;;;;;;29.05;3.35;;;4.40;99.90;;;;;;5027160;28;20409;-87
2021/03/12 05:26:02;;;;;;;28.67;3.95;;;4.30;99.90;;;;;;5044099;28;20051;-87
2021/03/12 05:28:28;;;;;;;33.33;5.68;;;4.30;99.90;;;;;;5027953;28;20147;-87
2021/03/12 05:30:54;;;;;;;14.52;2.25;;;4.60;99.90;;;;;;5026270;28;20128;-89
2021/03/12 05:33:20;;;;;;;24.95;2.80;;;4.20;99.90;;;;;;5011336;28;20561;-89
2021/03/12 05:35:46;;;;;;;13.95;2.58;;;4.20;99.90;;;;;;5028174;28;20508;-87
2021/03/12 05:38:11;;;;;;;14.07;2.05;;;4.20;99.90;;;;;;5044180;28;20065;-88
2021/03/12 05:40:40;;;;;;;24.98;4.07;;;4.30;99.90;;;;;;5026610;28;20095;-87
2021/03/12 05:43:08;;;;;;;19.38;2.20;;;4.30;99.90;;;;;;5024112;28;20057;-89
2021/03/12 05:45:35;;;;;;;22.25;2.55;;;4.30;99.90;;;;;;5031999;28;20115;-89
2021/03/12 05:48:01;;;;;;;14.20;2.75;;;4.30;99.90;;;;;;5027225;28;20060;-88
2021/03/12 05:50:30;;;;;;;24.27;3.33;;;4.30;99.90;;;;;;5027457;28;20041;-88
2021/03/12 05:52:56;;;;;;;20.63;3.00;;;4.30;99.90;;;;;;5042781;28;20465;-87
2021/03/12 05:55:24;;;;;;;17.23;2.00;;;4.30;99.90;;;;;;5043767;28;20383;-88
2021/03/12 05:57:50;;;;;;;15.35;2.60;;;4.30;99.90;;;;;;5026132;28;20061;-88
2021/03/12 06:00:17;;;;;;;19.75;2.70;;;4.30;99.90;;;;;;5024892;28;20042;-88
2021/03/12 06:02:43;;;;;;;10.23;1.95;;;4.30;99.90;;;;;;5019145;28;20402;-88
2021/03/12 06:05:10;;;;;;;18.10;2.72;;;4.30;99.90;;;;;;5023636;28;20050;-89
2021/03/12 06:07:39;;;;;;;19.60;2.45;;;4.40;99.90;;;;;;5019966;28;20104;-88
2021/03/12 06:10:08;;;;;;;17.58;3.53;;;4.40;99.90;;;;;;5034628;28;20507;-89
2021/03/12 06:12:34;;;;;;;23.58;2.45;;;4.40;99.90;;;;;;5034726;28;20045;-88
2021/03/12 06:15:04;;;;;;;16.13;2.67;;;4.40;99.90;;;;;;5013239;28;20416;-88
2021/03/12 06:17:43;;;;;;;12.50;2.03;;;4.40;99.90;;;;;;5025227;28;20068;-89
2021/03/12 06:20:13;;;;;;;20.65;3.03;;;4.50;99.90;;;;;;5045565;28;21388;-89
2021/03/12 06:22:52;;;;;;;20.15;3.08;;;4.50;99.90;;;;;;5026651;28;20041;-88
2021/03/12 06:25:21;;;;;;;14.20;2.55;;;4.60;99.90;;;;;;5045094;28;20068;-88
2021/03/12 06:27:48;;;;;;;15.98;2.55;;;4.60;99.90;;;;;;5027960;28;20528;-88
2021/03/12 06:30:17;;;;;;;28.65;4.03;;;4.60;99.90;;;;;;5047236;28;20124;-88
2021/03/12 06:32:44;;;;;;;17.83;2.65;;;4.60;99.90;;;;;;5023692;28;20490;-88
2021/03/12 06:35:21;;;;;;;19.48;2.42;;;4.70;99.90;;;;;;5033795;28;20063;-88
2021/03/12 06:37:49;;;;;;;32.53;3.13;;;4.70;99.90;;;;;;5038978;28;20038;-88
2021/03/12 06:40:29;;;;;;;16.38;2.67;;;4.70;99.90;;;;;;5041952;28;20049;-87
2021/03/12 06:42:59;;;;;;;22.67;2.97;;;4.70;99.90;;;;;;5035293;28;20045;-88
2021/03/12 06:45:45;;;;;;;23.83;2.97;;;5.10;99.90;;;;;;5025329;28;20061;-87
2021/03/12 06:48:23;;;;;;;24.73;2.80;;;4.80;99.90;;;;;;5042606;28;20072;-89
2021/03/12 06:50:54;;;;;;;19.17;2.40;;;4.80;99.90;;;;;;5042770;28;20057;-88
2021/03/12 06:53:24;;;;;;;18.73;2.50;;;4.90;99.90;;;;;;5027739;28;20042;-88
2021/03/12 06:55:51;;;;;;;16.15;2.22;;;4.90;99.90;;;;;;5029295;28;20477;-89
2021/03/12 06:58:18;;;;;;;25.73;2.83;;;5.00;99.90;;;;;;5023797;28;20129;-90
2021/03/12 07:00:44;;;;;;;22.70;3.92;;;5.00;99.90;;;;;;5048233;28;20041;-89
2021/03/12 07:03:28;;;;;;;25.38;3.00;;;5.10;99.90;;;;;;5029778;28;20068;-89
2021/03/12 07:05:58;;;;;;;23.98;3.15;;;5.10;99.90;;;;;;5033477;28;20045;-89
2021/03/12 07:08:38;;;;;;;24.67;3.22;;;5.20;99.90;;;;;;5023116;28;20898;-88
2021/03/12 07:11:19;;;;;;;21.55;2.83;;;5.20;99.90;;;;;;5017948;28;20183;-89
2021/03/12 07:13:45;;;;;;;20.30;2.47;;;5.30;99.90;;;;;;5045271;28;20111;-88
2021/03/12 07:16:11;;;;;;;14.60;2.55;;;5.30;99.90;;;;;;5009418;28;20378;-89
2021/03/12 07:18:37;;;;;;;21.92;2.75;;;5.40;99.90;;;;;;5028905;28;20761;-89
2021/03/12 07:21:05;;;;;;;19.42;3.03;;;5.40;99.90;;;;;;5026047;28;20045;-89
2021/03/12 07:23:37;;;;;;;27.52;2.70;;;5.50;99.90;;;;;;5014190;28;20520;-89
2021/03/12 07:26:05;;;;;;;16.65;3.13;;;5.50;99.90;;;;;;5024694;28;20120;-88
2021/03/12 07:28:34;;;;;;;14.60;3.15;;;5.50;99.90;;;;;;5028537;28;20076;-89
2021/03/12 07:31:05;;;;;;;26.88;3.75;;;5.60;99.90;;;;;;5027300;28;20073;-89
2021/03/12 07:33:34;;;;;;;16.77;3.15;;;5.70;99.90;;;;;;5028786;28;20037;-89
2021/03/12 07:36:02;;;;;;;16.60;3.17;;;5.70;99.90;;;;;;5029718;28;20049;-88
2021/03/12 07:38:32;;;;;;;14.43;2.70;;;5.70;99.90;;;;;;5028987;28;20116;-90
2021/03/12 07:41:06;;;;;;;16.73;2.92;;;5.80;99.90;;;;;;5028303;28;20045;-91
2021/03/12 07:43:39;;;;;;;21.70;3.40;;;5.80;99.90;;;;;;5012378;28;20468;-90
2021/03/12 07:46:08;;;;;;;27.65;3.35;;;5.90;99.90;;;;;;5027867;28;20065;-91
2021/03/12 07:48:35;;;;;;;18.90;3.05;;;5.90;99.90;;;;;;5029334;28;20505;-91
2021/03/12 07:51:10;;;;;;;31.75;3.97;;;5.90;99.90;;;;;;5027895;28;20052;-90
2021/03/12 07:53:50;;;;;;;34.92;3.65;;;6.00;99.90;;;;;;5028507;28;20056;-91
2021/03/12 07:56:18;;;;;;;22.15;4.30;;;6.10;99.90;;;;;;5028011;28;20401;-88
2021/03/12 07:59:04;;;;;;;20.30;3.80;;;6.10;99.90;;;;;;5027448;28;20499;-88
2021/03/12 08:01:46;;;;;;;20.88;3.67;;;6.20;99.90;;;;;;5028638;28;20049;-89
2021/03/12 08:04:32;;;;;;;20.98;3.38;;;6.20;99.90;;;;;;5026428;28;20061;-89
2021/03/12 08:07:19;;;;;;;19.58;4.38;;;6.30;99.90;;;;;;5027675;28;20457;-89
2021/03/12 08:09:55;;;;;;;21.75;3.47;;;6.30;99.90;;;;;;5022364;28;20054;-88
2021/03/12 08:12:37;;;;;;;27.33;4.82;;;6.30;99.90;;;;;;5029663;28;20055;-89
2021/03/12 08:15:12;;;;;;;24.90;3.92;;;6.40;99.90;;;;;;5028782;28;20049;-90
2021/03/12 08:17:38;;;;;;;25.65;3.30;;;6.50;99.90;;;;;;5045035;28;20033;-89
2021/03/12 08:20:22;;;;;;;24.13;3.67;;;6.50;99.90;;;;;;5010756;28;20052;-90
2021/03/12 08:22:50;;;;;;;18.70;3.97;;;6.60;99.90;;;;;;5049799;28;20432;-89
2021/03/12 08:25:32;;;;;;;21.00;3.65;;;6.70;99.90;;;;;;5028235;28;20794;-87
2021/03/12 08:27:59;;;;;;;22.13;3.25;;;6.70;99.90;;;;;;5027995;28;20049;-87
2021/03/12 08:30:25;;;;;;;35.38;3.75;;;6.80;99.90;;;;;;5001751;28;20451;-87
2021/03/12 08:32:57;;;;;;;27.40;5.22;;;6.90;99.90;;;;;;5038813;28;20065;-88
2021/03/12 08:38:03;;;;;;;18.42;3.20;;;6.90;99.90;;;;;;5028438;28;20050;-88
2021/03/12 08:40:33;;;;;;;25.23;4.90;;;6.90;99.90;;;;;;5047547;28;20034;-88
2021/03/12 08:43:11;;;;;;;15.90;3.42;;;7.00;99.90;;;;;;5042216;28;20037;-89
2021/03/12 08:45:52;;;;;;;21.70;3.75;;;7.10;99.90;;;;;;5038268;28;20046;-88
2021/03/12 08:48:28;;;;;;;31.23;4.32;;;7.10;99.90;;;;;;5041004;28;20045;-89
2021/03/12 08:50:55;;;;;;;18.85;3.28;;;7.10;99.90;;;;;;5022255;28;20474;-89
2021/03/12 08:53:33;;;;;;;10.25;2.92;;;7.10;99.90;;;;;;5025092;28;20068;-90
2021/03/12 08:56:02;;;;;;;21.20;3.55;;;7.10;99.90;;;;;;5044487;28;20467;-88
2021/03/12 08:58:36;;;;;;;20.40;3.42;;;7.30;99.90;;;;;;5029320;28;20481;-88
2021/03/12 09:01:17;;;;;;;18.60;3.47;;;7.30;99.90;;;;;;5031281;28;20596;-89
2021/03/12 09:04:04;;;;;;;20.95;2.85;;;7.40;99.90;;;;;;5024443;28;20049;-87
2021/03/12 09:06:51;;;;;;;19.45;3.20;;;7.40;99.90;;;;;;5002890;28;20132;-88
2021/03/12 09:09:38;;;;;;;39.53;4.60;;;7.50;99.90;;;;;;5008201;28;20046;-89
2021/03/12 09:12:23;;;;;;;16.38;2.85;;;7.60;99.90;;;;;;5051329;28;20395;-88
2021/03/12 09:15:12;;;;;;;18.50;2.53;;;7.70;99.90;;;;;;5011575;28;20081;-89
2021/03/12 09:17:38;;;;;;;20.70;3.40;;;7.70;99.90;;;;;;5026435;28;20693;-88
2021/03/12 09:20:05;;;;;;;16.58;2.72;;;7.70;99.90;;;;;;5010350;28;20050;-86
2021/03/12 09:22:34;;;;;;;13.85;2.35;;;7.70;99.90;;;;;;5024839;28;20482;-90
2021/03/12 09:25:00;;;;;;;32.75;4.00;;;7.70;99.90;;;;;;5014464;28;20740;-89
2021/03/12 09:27:26;;;;;;;21.67;3.42;;;7.80;99.90;;;;;;5031621;28;20064;-85
2021/03/12 09:29:52;;;;;;;18.75;3.00;;;7.80;99.90;;;;;;5044084;28;20762;-85
2021/03/12 09:32:18;;;;;;;16.02;2.92;;;7.90;99.90;;;;;;5035647;28;20478;-84
2021/03/12 09:34:44;;;;;;;22.23;4.63;;;7.90;99.90;;;;;;5030524;28;20514;-85
2021/03/12 09:37:10;;;;;;;22.63;3.15;;;7.90;99.90;;;;;;5028434;28;20045;-84
2021/03/12 09:39:40;;;;;;;21.13;3.20;;;7.90;99.90;;;;;;5041469;28;20098;-85
2021/03/12 09:42:11;;;;;;;15.77;3.00;;;7.90;99.90;;;;;;5033217;28;20077;-85
2021/03/12 09:44:38;;;;;;;19.35;3.83;;;8.00;99.90;;;;;;5028816;28;20041;-86
2021/03/12 09:47:06;;;;;;;23.30;3.72;;;7.90;99.90;;;;;;5046209;28;20049;-85
2021/03/12 09:49:36;;;;;;;21.65;4.15;;;7.90;99.90;;;;;;5037175;28;20597;-86
2021/03/12 09:52:19;;;;;;;18.35;2.88;;;8.00;99.90;;;;;;5033597;28;20147;-86
2021/03/12 09:54:45;;;;;;;18.05;2.67;;;8.00;99.90;;;;;;5029666;28;20053;-85
2021/03/12 09:57:16;;;;;;;21.92;4.18;;;8.10;99.90;;;;;;5030458;28;20049;-85
2021/03/12 09:59:46;;;;;;;20.20;4.18;;;8.10;99.90;;;;;;5031208;28;20053;-86
2021/03/12 10:02:12;;;;;;;17.33;2.88;;;8.20;99.90;;;;;;5027096;28;20794;-88
2021/03/12 10:04:43;;;;;;;18.05;3.13;;;8.30;99.90;;;;;;5048931;28;20044;-89
2021/03/12 10:07:15;;;;;;;19.90;2.88;;;8.40;99.90;;;;;;5034106;28;20093;-88
2021/03/12 10:09:50;;;;;;;17.05;3.33;;;8.40;99.90;;;;;;5028223;28;20037;-88
2021/03/12 10:13:02;;;;;;;26.13;4.55;;;8.40;99.90;;;;;;5028746;28;20093;-89
2021/03/12 10:15:39;;;;;;;17.23;2.78;;;8.50;99.90;;;;;;5013196;28;20038;-92
2021/03/12 10:18:06;;;;;;;24.08;3.35;;;8.50;99.90;;;;;;5044682;28;20069;-90
2021/03/12 10:20:38;;;;;;;19.52;3.22;;;8.70;99.90;;;;;;5031111;28;20068;-90
2021/03/12 10:23:07;;;;;;;17.52;3.80;;;8.60;99.90;;;;;;5030803;28;20049;-90
2021/03/12 10:25:39;;;;;;;20.95;3.45;;;8.80;99.90;;;;;;5013364;28;20176;-90
2021/03/12 10:28:07;;;;;;;21.80;3.53;;;8.60;99.90;;;;;;5025341;28;20084;-89
2021/03/12 10:30:39;;;;;;;28.08;3.60;;;8.60;99.90;;;;;;5045105;28;20037;-90
2021/03/12 10:33:17;;;;;;;25.88;4.03;;;8.40;99.90;;;;;;5032787;28;20037;-88
2021/03/12 10:35:58;;;;;;;16.65;3.05;;;8.30;99.90;;;;;;5028919;28;20124;-89
2021/03/12 10:38:29;;;;;;;23.73;4.47;;;7.90;99.90;;;;;;5032173;28;20048;-91
2021/03/12 10:41:15;;;;;;;23.52;3.42;;;7.60;99.90;;;;;;5029702;28;20045;-90
2021/03/12 10:43:41;;;;;;;12.20;2.55;;;7.50;99.90;;;;;;5030615;28;20073;-90
2021/03/12 10:46:09;;;;;;;19.45;3.05;;;7.30;99.90;;;;;;5051708;28;20033;-89
2021/03/12 10:48:51;;;;;;;19.20;2.92;;;7.20;99.90;;;;;;5028791;28;20133;-91
2021/03/12 10:51:18;;;;;;;15.13;3.17;;;7.10;99.90;;;;;;5032796;28;20072;-89
2021/03/12 10:53:56;;;;;;;7.90;2.10;;;7.10;99.90;;;;;;5028436;28;20052;-90
2021/03/12 10:56:26;;;;;;;17.67;2.65;;;7.20;99.90;;;;;;5025383;28;20030;-89
2021/03/12 10:58:53;;;;;;;15.82;2.28;;;7.30;99.90;;;;;;5047763;28;20502;-89
2021/03/12 11:01:30;;;;;;;18.48;2.55;;;7.40;99.90;;;;;;5045334;28;20064;-90
2021/03/12 11:03:58;;;;;;;20.95;2.75;;;7.50;99.90;;;;;;5028482;28;20041;-89
2021/03/12 11:06:38;;;;;;;16.33;2.80;;;7.60;99.90;;;;;;5031371;28;20738;-91
2021/03/12 11:09:09;;;;;;;16.23;3.75;;;7.80;99.90;;;;;;5047619;28;20045;-90
2021/03/12 11:11:36;;;;;;;23.02;4.55;;;8.00;99.90;;;;;;5030558;28;20048;-89
2021/03/12 11:14:03;;;;;;;14.23;2.92;;;8.10;99.90;;;;;;5047251;28;20045;-89
2021/03/12 11:16:29;;;;;;;18.60;3.60;;;8.20;99.90;;;;;;5030345;28;20079;-88
2021/03/12 11:18:55;;;;;;;21.88;3.92;;;8.10;99.90;;;;;;5046467;28;20045;-88
2021/03/12 11:21:21;;;;;;;22.70;3.85;;;8.20;99.90;;;;;;5028999;28;20065;-89
2021/03/12 11:23:47;;;;;;;20.42;3.55;;;8.20;99.90;;;;;;5045759;28;20045;-89
2021/03/12 11:26:14;;;;;;;22.25;4.00;;;8.20;99.90;;;;;;5028738;28;20059;-89
2021/03/12 11:28:49;;;;;;;25.65;4.43;;;8.30;99.90;;;;;;5045025;28;20524;-89
2021/03/12 11:31:15;;;;;;;24.00;3.65;;;8.40;99.90;;;;;;5024572;28;20092;-89
2021/03/12 11:33:41;;;;;;;19.90;3.30;;;8.50;99.90;;;;;;5039547;28;20088;-91
2021/03/12 11:36:07;;;;;;;17.70;2.88;;;8.60;99.90;;;;;;5026033;28;20042;-91
2021/03/12 11:38:34;;;;;;;18.67;3.30;;;8.60;99.90;;;;;;5026024;28;20053;-89
2021/03/12 11:41:01;;;;;;;23.63;4.75;;;8.50;99.90;;;;;;5025351;28;20093;-89
2021/03/12 11:43:27;;;;;;;16.08;3.65;;;8.50;99.90;;;;;;5041826;28;20037;-90
2021/03/12 11:45:56;;;;;;;24.25;4.97;;;8.50;99.90;;;;;;5043814;28;20118;-90
2021/03/12 11:48:22;;;;;;;17.20;3.42;;;8.70;99.90;;;;;;5029412;28;20568;-90
2021/03/12 11:50:49;;;;;;;19.73;2.95;;;8.80;99.90;;;;;;5030145;28;20053;-90
2021/03/12 11:53:15;;;;;;;20.17;3.65;;;8.70;99.90;;;;;;5038803;28;20038;-91
2021/03/12 11:55:41;;;;;;;16.35;3.53;;;8.70;99.90;;;;;;5027654;28;20048;-89
2021/03/12 11:58:10;;;;;;;11.75;2.00;;;8.60;99.90;;;;;;5027548;28;20398;-88
2021/03/12 12:00:36;;;;;;;9.35;1.65;;;8.50;99.90;;;;;;5027690;28;20037;-90
2021/03/12 12:03:04;;;;;;;13.48;2.72;;;8.30;99.90;;;;;;5044756;28;20052;-91
2021/03/12 12:05:30;;;;;;;20.80;3.38;;;8.20;99.90;;;;;;5043224;28;20025;-92
2021/03/12 12:07:56;;;;;;;24.13;3.25;;;8.00;99.90;;;;;;5025165;28;20482;-91
2021/03/12 12:10:23;;;;;;;23.52;3.53;;;7.70;99.90;;;;;;5026431;28;20048;-92
2021/03/12 12:14:02;;;;;;;17.35;4.53;;;7.40;99.90;;;;;;5039363;28;20056;-93
2021/03/12 12:16:30;;;;;;;7.32;1.58;;;7.20;99.90;;;;;;4969477;28;20047;-91
2021/03/12 12:19:04;;;;;;;8.10;2.10;;;6.80;99.90;;;;;;4966149;28;20110;-92
2021/03/12 12:21:31;;;;;;;7.68;1.70;;;6.70;99.90;;;;;;5009119;28;20099;-90
2021/03/12 12:23:57;;;;;;;11.38;1.90;;;6.80;99.90;;;;;;5028702;28;20057;-90
2021/03/12 12:26:23;;;;;;;9.27;2.15;;;6.80;99.90;;;;;;5027186;28;20109;-91
2021/03/12 12:28:49;;;;;;;10.55;2.00;;;6.90;99.90;;;;;;5043525;28;20048;-92
2021/03/12 12:31:17;;;;;;;7.18;2.10;;;6.90;99.90;;;;;;5047331;28;20080;-91
2021/03/12 12:33:44;;;;;;;8.27;2.30;;;7.10;99.90;;;;;;5045793;28;20045;-89
2021/03/12 12:36:11;;;;;;;8.65;2.20;;;7.20;99.90;;;;;;5029329;28;20033;-90
2021/03/12 12:38:38;;;;;;;11.10;1.85;;;7.30;99.90;;;;;;5044996;28;20477;-92
2021/03/12 12:41:04;;;;;;;7.85;2.17;;;7.40;99.90;;;;;;5028535;28;20041;-92
2021/03/12 12:43:30;;;;;;;10.40;1.95;;;7.40;99.90;;;;;;5028209;28;20072;-92
2021/03/12 12:45:55;;;;;;;7.18;2.28;;;7.40;99.90;;;;;;5025025;28;20069;-90
2021/03/12 12:48:21;;;;;;;9.15;2.05;;;7.40;99.90;;;;;;5027520;28;20075;-91
2021/03/12 12:50:47;;;;;;;10.25;1.90;;;7.50;99.90;;;;;;5046520;28;20045;-91
2021/03/12 12:53:13;;;;;;;6.40;2.63;;;7.60;99.90;;;;;;5051364;28;20037;-88
2021/03/12 12:55:39;;;;;;;8.20;1.67;;;7.70;99.90;;;;;;5048861;28;20043;-91
2021/03/12 12:58:05;;;;;;;9.05;2.00;;;7.80;99.90;;;;;;5029766;28;20057;-91
2021/03/12 13:00:32;;;;;;;8.75;1.85;;;7.90;99.90;;;;;;5037445;28;20052;-90
2021/03/12 13:02:58;;;;;;;7.90;2.00;;;7.90;99.90;;;;;;5050826;28;20095;-90